createdAt,value
2022-11-17T00:00:29.814Z,15.53
2022-11-17T00:05:32.408Z,14.37
2022-11-17T00:10:35.100Z,14.23
2022-11-17T00:15:37.803Z,14.90
2022-11-17T00:21:00.380Z,16.10
2022-11-17T00:26:03.023Z,15.17
2022-11-17T00:31:24.044Z,13.70
2022-11-17T00:36:27.050Z,14.17
2022-11-17T00:41:29.760Z,13.27
2022-11-17T00:46:33.053Z,13.60
2022-11-17T00:51:36.402Z,12.90
2022-11-17T00:56:39.499Z,12.93
2022-11-17T01:01:43.115Z,13.10
2022-11-17T01:06:49.095Z,12.60
2022-11-17T01:11:53.301Z,13.17
2022-11-17T01:16:56.508Z,13.20
2022-11-17T01:21:59.142Z,12.87
2022-11-17T01:27:01.783Z,11.97
2022-11-17T01:32:04.516Z,12.03
2022-11-17T01:37:22.118Z,11.77
2022-11-17T01:42:27.060Z,12.30
2022-11-17T01:47:58.573Z,13.00
2022-11-17T01:53:05.315Z,12.03
2022-11-17T01:58:31.738Z,12.23
2022-11-17T02:03:35.602Z,12.63
2022-11-17T02:08:41.080Z,13.50
2022-11-17T02:13:43.945Z,14.63
2022-11-17T02:18:47.068Z,13.13
2022-11-17T02:24:26.846Z,14.97
2022-11-17T02:29:43.522Z,14.20
2022-11-17T02:34:55.983Z,12.67
2022-11-17T02:40:12.853Z,13.30
2022-11-17T02:45:21.456Z,11.73
2022-11-17T02:50:28.732Z,13.23
2022-11-17T02:55:35.330Z,12.67
2022-11-17T03:01:05.360Z,12.67
2022-11-17T03:06:32.203Z,13.43
2022-11-17T03:12:05.854Z,12.20
2022-11-17T03:17:16.962Z,12.90
2022-11-17T03:22:28.359Z,13.67
2022-11-17T03:27:38.425Z,12.67
2022-11-17T03:32:46.615Z,12.23
2022-11-17T03:37:55.971Z,13.07
2022-11-17T03:43:02.468Z,11.83
2022-11-17T03:48:33.842Z,12.47
2022-11-17T03:53:37.076Z,12.43
2022-11-17T03:58:49.837Z,13.53
2022-11-17T04:03:52.431Z,12.23
2022-11-17T04:08:54.730Z,13.30
2022-11-17T04:14:15.783Z,12.23
2022-11-17T04:19:18.131Z,13.77
2022-11-17T04:24:20.468Z,13.70
2022-11-17T04:29:22.836Z,13.43
2022-11-17T04:34:25.270Z,13.33
2022-11-17T04:39:27.621Z,13.67
2022-11-17T04:44:32.014Z,13.50
2022-11-17T04:49:34.388Z,13.47
2022-11-17T04:54:36.709Z,13.60
2022-11-17T04:59:39.040Z,15.33
2022-11-17T05:04:56.700Z,14.90
2022-11-17T05:09:59.031Z,14.90
2022-11-17T05:15:01.426Z,13.43
2022-11-17T05:20:04.073Z,13.20
2022-11-17T05:25:07.330Z,13.20
2022-11-17T05:30:10.585Z,14.37
2022-11-17T05:35:12.889Z,13.50
2022-11-17T05:40:15.558Z,12.40
2022-11-17T05:45:17.900Z,12.17
2022-11-17T05:50:20.246Z,12.93
2022-11-17T05:55:22.572Z,13.33
2022-11-17T06:00:24.979Z,13.53
2022-11-17T06:05:28.029Z,13.83
2022-11-17T06:10:30.402Z,13.43
2022-11-17T06:15:34.275Z,12.10
2022-11-17T06:20:41.796Z,12.17
2022-11-17T06:25:45.182Z,12.23
2022-11-17T06:30:48.903Z,12.43
2022-11-17T06:35:51.442Z,11.87
2022-11-17T06:40:53.808Z,11.50
2022-11-17T06:45:56.103Z,11.67
2022-11-17T06:50:58.581Z,11.60
2022-11-17T06:56:01.963Z,11.80
2022-11-17T07:01:07.028Z,11.90
2022-11-17T07:06:11.523Z,11.30
2022-11-17T07:11:16.534Z,10.73
2022-11-17T07:16:24.061Z,11.23
2022-11-17T07:21:26.761Z,11.63
2022-11-17T07:26:29.490Z,10.33
2022-11-17T07:31:31.795Z,11.63
2022-11-17T07:36:34.113Z,11.47
2022-11-17T07:41:36.441Z,10.47
2022-11-17T07:46:42.607Z,9.07
2022-11-17T07:51:45.008Z,10.07
2022-11-17T07:56:47.392Z,10.63
2022-11-17T08:01:49.693Z,11.40
2022-11-17T08:06:52.170Z,12.07
2022-11-17T08:11:54.703Z,8.27
2022-11-17T08:16:57.019Z,7.07
2022-11-17T08:21:59.370Z,6.63
2022-11-17T08:27:01.671Z,8.40
2022-11-17T08:32:04.163Z,6.20
2022-11-17T08:37:06.592Z,7.23
2022-11-17T08:42:08.904Z,6.53
2022-11-17T08:47:11.210Z,7.43
2022-11-17T08:52:13.510Z,7.73
2022-11-17T08:57:15.908Z,6.63
2022-11-17T09:02:18.409Z,6.73
2022-11-17T09:07:20.849Z,6.03
2022-11-17T09:12:24.211Z,9.37
2022-11-17T09:17:26.546Z,11.83
2022-11-17T09:22:28.894Z,12.37
2022-11-17T09:27:31.225Z,11.53
2022-11-17T09:32:36.692Z,13.73
2022-11-17T09:37:41.358Z,9.10
2022-11-17T09:42:44.170Z,10.43
2022-11-17T09:48:07.050Z,10.30
2022-11-17T09:53:26.066Z,7.93
2022-11-17T09:58:38.588Z,9.37
2022-11-17T10:03:46.351Z,7.40
2022-11-17T10:09:00.889Z,9.37
2022-11-17T10:14:07.860Z,8.97
2022-11-17T10:19:22.577Z,7.97
2022-11-17T10:24:42.171Z,8.47
2022-11-17T10:30:16.352Z,7.87
2022-11-17T10:35:20.208Z,8.37
2022-11-17T10:40:26.525Z,8.63
2022-11-17T10:45:29.303Z,9.80
2022-11-17T10:50:31.699Z,9.27
2022-11-17T10:55:34.440Z,10.57
2022-11-17T11:00:37.628Z,8.07
2022-11-17T11:06:20.702Z,8.87
2022-11-17T11:11:41.396Z,7.80
2022-11-17T11:16:48.348Z,11.93
2022-11-17T11:22:09.020Z,10.57
2022-11-17T11:27:39.205Z,9.27
2022-11-17T11:32:41.591Z,8.27
2022-11-17T11:38:20.723Z,8.50
2022-11-17T11:43:35.045Z,8.50
2022-11-17T11:48:40.925Z,7.40
2022-11-17T11:54:00.845Z,8.30
2022-11-17T11:59:26.130Z,8.03
2022-11-17T12:04:47.862Z,14.63
2022-11-17T12:10:05.983Z,27.30
2022-11-17T12:15:20.741Z,17.57
2022-11-17T12:20:38.053Z,26.70
2022-11-17T12:25:54.681Z,30.80
2022-11-17T12:31:09.750Z,29.97
2022-11-17T12:36:30.792Z,28.20
2022-11-17T12:41:48.643Z,39.40
2022-11-17T12:47:01.447Z,18.67
2022-11-17T12:52:16.182Z,22.63
2022-11-17T12:57:26.432Z,19.57
2022-11-17T13:02:47.549Z,12.23
2022-11-17T13:07:50.165Z,21.47
2022-11-17T13:13:29.595Z,19.00
2022-11-17T13:18:39.340Z,31.57
2022-11-17T13:23:45.427Z,28.63
2022-11-17T13:29:01.448Z,24.80
2022-11-17T13:34:13.303Z,32.30
2022-11-17T13:39:19.657Z,12.90
2022-11-17T13:44:27.920Z,15.87
2022-11-17T13:49:37.849Z,23.80
2022-11-17T13:54:44.998Z,14.33
2022-11-17T13:59:48.560Z,12.53
2022-11-17T14:05:09.555Z,17.70
2022-11-17T14:10:21.013Z,13.70
2022-11-17T14:15:32.450Z,25.60
2022-11-17T14:20:36.280Z,29.40
2022-11-17T14:25:44.210Z,15.50
2022-11-17T14:30:55.186Z,13.07
2022-11-17T14:35:59.717Z,25.77
2022-11-17T14:41:02.060Z,17.40
2022-11-17T14:46:04.545Z,15.67
2022-11-17T14:51:06.876Z,14.90
2022-11-17T14:56:09.942Z,10.77
2022-11-17T15:01:19.924Z,15.80
2022-11-17T15:06:22.941Z,13.03
2022-11-17T15:11:27.031Z,10.80
2022-11-17T15:16:29.397Z,15.93
2022-11-17T15:21:31.762Z,31.37
2022-11-17T15:26:34.241Z,26.93
2022-11-17T15:31:36.757Z,17.10
2022-11-17T15:36:39.162Z,24.33
2022-11-17T15:41:41.629Z,79.67
2022-11-17T15:46:47.356Z,42.30
2022-11-17T15:51:50.135Z,38.90
2022-11-17T15:56:52.504Z,48.67
2022-11-17T16:01:54.857Z,37.63
2022-11-17T16:06:57.307Z,21.17
2022-11-17T16:12:00.264Z,54.03
2022-11-17T16:17:02.715Z,23.70
2022-11-17T16:22:05.073Z,25.17
2022-11-17T16:27:07.427Z,29.07
2022-11-17T16:32:09.737Z,24.20
2022-11-17T16:37:13.248Z,29.23
2022-11-17T16:42:15.567Z,21.63
2022-11-17T16:47:17.877Z,25.50
2022-11-17T16:52:20.561Z,18.97
2022-11-17T16:57:22.954Z,13.47
2022-11-17T17:02:26.170Z,15.23
2022-11-17T17:07:28.688Z,46.00
2022-11-17T17:12:31.258Z,29.73
2022-11-17T17:17:33.584Z,40.70
2022-11-17T17:22:35.915Z,24.83
2022-11-17T17:27:38.405Z,22.00
2022-11-17T17:32:40.759Z,20.37
2022-11-17T17:37:43.072Z,18.07
2022-11-17T17:42:45.367Z,19.73
2022-11-17T17:47:47.674Z,18.10
2022-11-17T17:52:50.119Z,15.87
2022-11-17T17:57:52.448Z,19.67
2022-11-17T18:02:57.472Z,20.60
2022-11-17T18:08:01.716Z,17.47
2022-11-17T18:13:09.306Z,22.80
2022-11-17T18:18:13.133Z,21.23
2022-11-17T18:23:15.478Z,17.53
2022-11-17T18:28:17.809Z,20.63
2022-11-17T18:33:20.152Z,23.67
2022-11-17T18:38:22.624Z,18.87
2022-11-17T18:43:24.941Z,66.50
2022-11-17T18:48:27.266Z,18.80
2022-11-17T18:53:33.553Z,12.67
2022-11-17T18:58:36.520Z,13.57
2022-11-17T19:03:39.197Z,14.77
2022-11-17T19:08:41.661Z,17.87
2022-11-17T19:13:45.125Z,17.77
2022-11-17T19:18:49.218Z,21.03
2022-11-17T19:23:52.603Z,20.53
2022-11-17T19:29:03.355Z,23.23
2022-11-17T19:34:05.804Z,21.07
2022-11-17T19:39:08.133Z,25.40
2022-11-17T19:44:10.509Z,30.63
2022-11-17T19:49:12.864Z,28.23
2022-11-17T19:54:15.361Z,19.83
2022-11-17T19:59:17.945Z,21.03
2022-11-17T20:04:20.820Z,31.33
2022-11-17T20:09:23.155Z,31.13
2022-11-17T20:14:25.707Z,22.30
2022-11-17T20:19:28.040Z,20.57
2022-11-17T20:24:30.442Z,23.30
2022-11-17T20:29:32.784Z,17.40
2022-11-17T20:34:35.115Z,20.20
2022-11-17T20:39:37.418Z,20.30
2022-11-17T20:44:39.763Z,22.90
2022-11-17T20:49:42.095Z,29.47
2022-11-17T20:54:44.388Z,17.00
2022-11-17T20:59:46.666Z,24.60
2022-11-17T21:04:49.043Z,18.67
2022-11-17T21:09:51.401Z,20.20
2022-11-17T21:14:54.205Z,19.80
2022-11-17T21:19:56.625Z,21.17
2022-11-17T21:24:58.988Z,17.37
2022-11-17T21:30:04.556Z,17.73
2022-11-17T21:35:07.103Z,20.80
2022-11-17T21:40:09.945Z,24.40
2022-11-17T21:45:12.287Z,27.50
2022-11-17T21:50:14.695Z,26.27
2022-11-17T21:55:17.031Z,24.70
2022-11-17T22:00:19.598Z,21.67
2022-11-17T22:05:24.745Z,23.73
2022-11-17T22:10:27.113Z,23.93
2022-11-17T22:15:29.534Z,27.33
2022-11-17T22:20:31.852Z,21.10
2022-11-17T22:25:49.314Z,22.23
2022-11-17T22:30:52.976Z,23.93
2022-11-17T22:36:00.200Z,23.47
2022-11-17T22:41:04.598Z,19.93
2022-11-17T22:46:09.875Z,19.60
2022-11-17T22:51:12.754Z,20.20
2022-11-17T22:56:15.072Z,18.77
2022-11-17T23:01:17.430Z,20.27
2022-11-17T23:06:19.782Z,20.67
2022-11-17T23:11:36.526Z,19.27
2022-11-17T23:16:40.267Z,20.73
2022-11-17T23:21:42.666Z,22.17
2022-11-17T23:26:44.969Z,21.50
2022-11-17T23:31:47.302Z,20.50
2022-11-17T23:36:51.089Z,20.57
2022-11-17T23:41:53.394Z,22.80
2022-11-17T23:46:55.766Z,22.60
2022-11-17T23:51:58.161Z,20.47
2022-11-17T23:57:00.460Z,21.30
